Boeing Field King County International Airport Seattle US
ICAO: KBFI
IATA: BFI
Category: Large
Scheduled Services: Yes

Elevation: 21 ft
TransAlt. 18000 ft.

Airport Communications:
SEATTLE APP/DEP:119.2
ATIS:127.75
CLNC DEL:132.4
GND:121.9
SEATTLE RDO:122.5
TWR: 31R
TWR: 31L
UNICOM:122.95

KBFI Zoom In..

If you have problems with the map follow the link
https://www.worldairports.se/pages/airport.php?
ICAO=KBFI

Runways:

(A) RW 13L length 3710 ft width 100 ft
---- / hdg 130

(B) RW 13R length 10000 ft width 200 ft
ILS 110.90 / hdg 130

(C) RW 31L length 10000 ft width 200 ft
ILS 110.90 / hdg 310

(D) RW 31R length 3710 ft width 100 ft
---- / hdg 310

Location; KBFI
Day. 14 / Time. 05.53 Zulu
* Altimeter: 30.02
* Temperature: 08° c. 46.4°f.
* Wind from: 210° Speed 04 kn.
Dewpoint: 04° c.
Visibility: 10 Statute Miles.
Clouds: Overcast 4300 ft.

KBFI 140553Z 21004KT 10SM OVC043 08/04 A3002 RMK AO2 SLP163 60000 T00780044 10094 20078 55000


Wind From 210°
Speed 04 kn.

 
 
jpsmedia worldairports.se 2019   terms of use